Últimos artigos:
Acender um LED com a tensão da rede eléctrica
Programação do Yaesu FT-60 para os EasySats
AO-91 (RadFxSat Fox-1B) está no Ar!
CT7AFR DIY CW-Keyer
Shutdown button for the Raspberry Pi
Simple C code to dump I2C device memory
Últimas fotos:
Últimos METARs:
LPAZ 200600Z 24009KT 9999 BKN016 17/14 Q10...
LPFR 200600Z 35003KT 300V030 CAVOK 14/10 Q...
LPHR 200600Z 22009KT 9999 FEW008 SCT012 BK...
LPLA 200600Z /////KT 9999 FEW016 18/15 Q10...
LPMA 200600Z 31004KT 240V030 9999 SCT015 S...
LPPD 200600Z 24011KT 9999 FEW016 BKN025 17...
LPPR 200600Z 12004KT 060V150 CAVOK 11/08 Q...
LPPS 200600Z 34010KT 9999 SCT012 BKN030 17...
LPPT 200600Z 32005KT CAVOK 12/10 Q1015=
Últimos QSOs:
2019/05/19-20:02 6m S57TW (BOJAN)
2019/05/19-19:57 6m CT1EEB (JOSE)
2019/05/19-19:51 6m M6PWD (PAUL)
2019/05/19-19:49 6m G8HGN (ROBERT)
2019/05/19-19:47 6m M0IPU (IULIAN)
2019/05/19-19:45 6m G8HZQ (PHILIP)
  UTC
Rpi-6 CPU Temp: 30.9 °C (200621Z)
IN51oq 0626Z /////KT //// 20/9 Q1015=
31869